Time;durP1;ratioP1;P1;durP2;ratioP2;P2;SDS_P1;SDS_P2;PMS_P1;PMS_P2;Temp;Humidity;BMP_temperature;BMP_pressure;BME280_temperature;BME280_humidity;BME280_pressure;Samples;Min_cycle;Max_cycle;Signal;HPM_P1;HPM_P2
2023/10/17 00:02:16;;;;;;;4.40;1.75;;;6.40;99.90;;;;;;5010526;28;20030;-48
2023/10/17 00:04:41;;;;;;;2.05;1.85;;;6.40;99.90;;;;;;5008697;28;20545;-53
2023/10/17 00:07:08;;;;;;;1.88;1.70;;;6.40;99.90;;;;;;5006592;28;20025;-51
2023/10/17 00:09:37;;;;;;;3.17;1.60;;;6.40;99.90;;;;;;5006105;28;20041;-50
2023/10/17 00:17:19;;;;;;;2.55;1.60;;;6.50;99.90;;;;;;5005993;28;19916;-54
2023/10/17 00:19:45;;;;;;;3.70;1.73;;;6.50;99.90;;;;;;5005807;28;20022;-50
2023/10/17 00:22:18;;;;;;;1.42;1.33;;;6.50;99.90;;;;;;5005855;28;20018;-52
2023/10/17 00:24:46;;;;;;;4.00;2.10;;;6.50;99.90;;;;;;5006758;28;20494;-50
2023/10/17 00:27:12;;;;;;;2.78;2.22;;;6.50;99.90;;;;;;5006163;28;20022;-54
2023/10/17 00:29:38;;;;;;;3.95;1.98;;;6.50;99.90;;;;;;5007060;28;20410;-53
2023/10/17 00:32:04;;;;;;;3.63;2.00;;;6.50;99.90;;;;;;5005359;28;20029;-47
2023/10/17 00:34:29;;;;;;;3.03;1.88;;;6.50;99.90;;;;;;5006354;28;20465;-58
2023/10/17 00:37:11;;;;;;;2.58;1.88;;;6.50;99.90;;;;;;5006056;28;20557;-51
2023/10/17 00:39:38;;;;;;;2.95;1.83;;;6.50;99.90;;;;;;5005504;28;20752;-51
2023/10/17 00:44:44;;;;;;;1.90;1.48;;;6.50;99.90;;;;;;5005479;28;20102;-50
2023/10/17 00:47:18;;;;;;;1.83;1.65;;;6.60;99.90;;;;;;5005290;28;20033;-54
2023/10/17 00:49:44;;;;;;;1.67;1.55;;;6.60;99.90;;;;;;5003394;28;20038;-52
2023/10/17 00:52:17;;;;;;;2.55;1.73;;;6.60;99.90;;;;;;5012105;28;20052;-48
2023/10/17 00:54:44;;;;;;;3.60;1.63;;;6.60;99.90;;;;;;5007204;28;20425;-51
2023/10/17 00:57:10;;;;;;;2.33;1.42;;;6.60;99.90;;;;;;5009861;28;20033;-52
2023/10/17 00:59:36;;;;;;;2.33;1.73;;;6.60;99.90;;;;;;5040903;22;20072;-59
2023/10/17 01:02:07;;;;;;;2.90;1.65;;;6.60;99.90;;;;;;5042757;28;20032;-58
2023/10/17 01:04:34;;;;;;;2.30;1.75;;;6.60;99.90;;;;;;5041500;28;20506;-59
2023/10/17 01:07:06;;;;;;;4.60;1.75;;;6.60;99.90;;;;;;5042990;28;20139;-58
2023/10/17 01:09:34;;;;;;;4.57;1.98;;;6.60;99.90;;;;;;5024209;28;20033;-56
2023/10/17 01:12:01;;;;;;;3.25;1.58;;;6.60;99.90;;;;;;5031012;28;20018;-59
2023/10/17 01:14:27;;;;;;;2.33;1.23;;;6.70;99.90;;;;;;5028555;28;20020;-58
2023/10/17 01:16:53;;;;;;;2.25;1.20;;;6.70;99.90;;;;;;5029379;28;20398;-57
2023/10/17 01:19:21;;;;;;;2.50;1.42;;;6.70;99.90;;;;;;5029479;28;20030;-60
2023/10/17 01:21:48;;;;;;;1.70;1.40;;;6.70;99.90;;;;;;5029985;28;20452;-58
2023/10/17 01:24:14;;;;;;;2.15;1.30;;;6.70;99.90;;;;;;5031072;28;20041;-59
2023/10/17 01:26:43;;;;;;;4.15;1.55;;;6.70;99.90;;;;;;5027764;28;20026;-60
2023/10/17 01:29:12;;;;;;;3.58;1.30;;;6.70;99.90;;;;;;5027689;28;20095;-59
2023/10/17 01:31:42;;;;;;;1.88;1.38;;;6.70;99.90;;;;;;5027611;28;20056;-58
2023/10/17 01:34:08;;;;;;;5.43;1.60;;;6.70;99.90;;;;;;5031316;28;20013;-57
2023/10/17 01:36:35;;;;;;;1.80;1.08;;;6.70;99.90;;;;;;5029051;28;20052;-59
2023/10/17 01:39:05;;;;;;;1.52;1.42;;;6.70;99.90;;;;;;5029755;28;20021;-60
2023/10/17 01:41:31;;;;;;;1.80;1.17;;;6.70;99.90;;;;;;5029409;28;20029;-59
2023/10/17 01:43:57;;;;;;;1.92;1.40;;;6.70;99.90;;;;;;5031181;28;20032;-58
2023/10/17 01:46:23;;;;;;;1.92;1.05;;;6.70;99.90;;;;;;5029387;28;20030;-59
2023/10/17 01:48:55;;;;;;;2.20;1.48;;;6.70;99.90;;;;;;5028518;28;20114;-57
2023/10/17 01:51:22;;;;;;;1.42;1.23;;;6.70;99.90;;;;;;5027692;28;20144;-59
2023/10/17 01:53:51;;;;;;;3.25;1.77;;;6.70;99.90;;;;;;5028334;28;20285;-58
2023/10/17 01:56:25;;;;;;;1.63;1.42;;;6.70;99.90;;;;;;5029263;28;20024;-60
2023/10/17 01:58:51;;;;;;;1.88;1.60;;;6.70;99.90;;;;;;5031999;28;20064;-60
2023/10/17 02:01:29;;;;;;;3.65;1.45;;;6.70;99.90;;;;;;5032078;28;20561;-59
2023/10/17 02:04:03;;;;;;;2.80;1.38;;;6.70;99.90;;;;;;5034092;28;20022;-59
2023/10/17 02:06:32;;;;;;;2.20;1.30;;;6.70;99.90;;;;;;5030816;28;20025;-59
2023/10/17 02:08:58;;;;;;;3.42;1.50;;;6.80;99.90;;;;;;5034118;28;20057;-59
2023/10/17 02:11:25;;;;;;;2.28;1.15;;;6.80;99.90;;;;;;5029489;28;20083;-59
2023/10/17 02:13:57;;;;;;;4.38;1.55;;;6.80;99.90;;;;;;5031691;28;20017;-60
2023/10/17 02:16:24;;;;;;;2.47;1.40;;;6.80;99.90;;;;;;5032016;28;20029;-59
2023/10/17 02:18:51;;;;;;;2.28;1.58;;;6.80;99.90;;;;;;5031743;28;20018;-58
2023/10/17 02:21:16;;;;;;;1.67;1.45;;;6.80;99.90;;;;;;5032363;28;20021;-59
2023/10/17 02:23:51;;;;;;;2.72;1.30;;;6.80;99.90;;;;;;5031456;28;20673;-58
2023/10/17 02:26:21;;;;;;;1.73;1.17;;;6.80;99.90;;;;;;5027524;28;20029;-60
2023/10/17 02:28:51;;;;;;;2.72;1.45;;;6.80;99.90;;;;;;5031466;28;20071;-60
2023/10/17 02:31:17;;;;;;;2.47;1.38;;;6.80;99.90;;;;;;5029727;28;20014;-59
2023/10/17 02:33:43;;;;;;;3.45;1.60;;;6.80;99.90;;;;;;5031431;28;20021;-58
2023/10/17 02:36:12;;;;;;;2.95;1.20;;;6.80;99.90;;;;;;5031925;28;20020;-59
2023/10/17 02:38:40;;;;;;;4.13;1.48;;;6.80;99.90;;;;;;5031028;28;20030;-58
2023/10/17 02:41:12;;;;;;;1.42;1.30;;;6.80;99.90;;;;;;5033087;28;20033;-58
2023/10/17 02:43:40;;;;;;;4.43;1.33;;;6.80;99.90;;;;;;5031099;28;20059;-57
2023/10/17 02:46:06;;;;;;;1.92;1.15;;;6.80;99.90;;;;;;5032575;28;20021;-58
2023/10/17 02:48:38;;;;;;;1.48;1.35;;;6.80;99.90;;;;;;5027936;28;20395;-59
2023/10/17 02:53:52;;;;;;;2.10;1.20;;;6.90;99.90;;;;;;5026390;28;20017;-59
2023/10/17 02:56:21;;;;;;;2.28;1.60;;;6.80;99.90;;;;;;5031159;28;20013;-58
2023/10/17 02:58:59;;;;;;;1.60;1.50;;;6.80;99.90;;;;;;5029549;28;20021;-62
2023/10/17 03:01:26;;;;;;;1.83;1.23;;;6.80;99.90;;;;;;5028031;28;20090;-59
2023/10/17 03:03:52;;;;;;;2.47;1.40;;;6.80;99.90;;;;;;5031203;28;20044;-57
2023/10/17 03:06:18;;;;;;;4.78;1.67;;;6.80;99.90;;;;;;5031095;28;20029;-60
2023/10/17 03:08:51;;;;;;;2.45;1.60;;;6.80;99.90;;;;;;5028045;28;20021;-60
2023/10/17 03:11:47;;;;;;;2.75;1.98;;;6.80;99.90;;;;;;5028939;28;20075;-59
2023/10/17 03:14:15;;;;;;;3.78;2.20;;;6.80;99.90;;;;;;5030910;28;20044;-59
2023/10/17 03:16:42;;;;;;;1.70;1.60;;;6.80;99.90;;;;;;5030161;28;20381;-58
2023/10/17 03:19:11;;;;;;;1.45;1.33;;;6.80;99.90;;;;;;5031152;28;20404;-59
2023/10/17 03:21:39;;;;;;;1.90;1.60;;;6.80;99.90;;;;;;5028426;28;20017;-59
2023/10/17 03:24:05;;;;;;;1.65;1.50;;;6.80;99.90;;;;;;5030126;28;20104;-60
2023/10/17 03:26:41;;;;;;;3.25;1.63;;;6.80;99.90;;;;;;5029986;28;20584;-60
2023/10/17 03:29:18;;;;;;;2.35;1.63;;;6.80;99.90;;;;;;5030831;28;20435;-58
2023/10/17 03:31:48;;;;;;;1.88;1.60;;;6.80;99.90;;;;;;5029956;28;20429;-59
2023/10/17 03:34:18;;;;;;;2.67;1.40;;;6.80;99.90;;;;;;5028524;28;20055;-60
2023/10/17 03:36:49;;;;;;;2.17;1.80;;;6.80;99.90;;;;;;5028145;28;20104;-61
2023/10/17 03:39:27;;;;;;;3.75;1.75;;;6.80;99.90;;;;;;5032509;28;20017;-60
2023/10/17 03:41:59;;;;;;;2.05;1.33;;;6.80;99.90;;;;;;5029248;28;20017;-60
2023/10/17 03:44:31;;;;;;;3.08;1.75;;;6.80;99.90;;;;;;5029202;28;20567;-59
2023/10/17 03:47:04;;;;;;;2.47;1.83;;;6.70;99.90;;;;;;5030044;28;20022;-58
2023/10/17 03:49:36;;;;;;;1.63;1.52;;;6.70;99.90;;;;;;5028422;28;20040;-59
2023/10/17 03:52:04;;;;;;;2.33;1.70;;;6.70;99.90;;;;;;5030120;28;20017;-61
2023/10/17 03:54:29;;;;;;;3.22;1.80;;;6.70;99.90;;;;;;5029041;28;20025;-58
2023/10/17 03:57:02;;;;;;;3.78;1.60;;;6.70;99.90;;;;;;5029331;28;20397;-58
2023/10/17 03:59:41;;;;;;;2.83;1.80;;;6.70;99.90;;;;;;5026281;28;20045;-59
2023/10/17 04:02:13;;;;;;;1.90;1.40;;;6.70;99.90;;;;;;5028424;28;20057;-57
2023/10/17 04:04:57;;;;;;;2.50;1.70;;;6.70;99.90;;;;;;5027366;28;20553;-60
2023/10/17 04:07:25;;;;;;;1.58;1.48;;;6.70;99.90;;;;;;5028680;28;20076;-58
2023/10/17 04:10:01;;;;;;;2.63;1.95;;;6.70;99.90;;;;;;5029963;28;20103;-62
2023/10/17 04:13:16;;;;;;;;;;;6.70;99.90;;;;;;5026907;28;20447;-57
2023/10/17 04:15:18;;;;;;;2.30;2.03;;;6.70;99.90;;;;;;5024053;28;19911;-59
2023/10/17 04:17:47;;;;;;;2.97;1.92;;;6.70;99.90;;;;;;5028582;28;20048;-55
2023/10/17 04:20:16;;;;;;;3.80;1.67;;;6.70;99.90;;;;;;5028894;28;20025;-58
2023/10/17 04:22:45;;;;;;;2.05;1.48;;;6.70;99.90;;;;;;5026700;28;20088;-60
2023/10/17 04:25:20;;;;;;;2.05;1.40;;;6.70;99.90;;;;;;5029134;28;20070;-58
2023/10/17 04:27:54;;;;;;;3.65;2.03;;;6.70;99.90;;;;;;5027623;28;20022;-60
2023/10/17 04:30:29;;;;;;;3.78;1.88;;;6.70;99.90;;;;;;5027003;28;20029;-59
2023/10/17 04:33:05;;;;;;;2.42;1.67;;;6.70;99.90;;;;;;5027801;28;20508;-58
2023/10/17 04:35:32;;;;;;;2.10;1.67;;;6.70;99.90;;;;;;5026189;28;20030;-60
2023/10/17 04:38:16;;;;;;;2.40;1.80;;;6.70;99.90;;;;;;5028435;28;20032;-59
2023/10/17 04:40:50;;;;;;;2.28;2.05;;;6.70;99.90;;;;;;5026198;28;20044;-60
2023/10/17 04:46:16;;;;;;;2.67;1.77;;;6.70;99.90;;;;;;5004331;28;20040;-60
2023/10/17 04:48:51;;;;;;;3.28;2.40;;;6.70;99.90;;;;;;5027460;28;20393;-60
2023/10/17 04:53:49;;;;;;;2.63;2.17;;;6.70;99.90;;;;;;5027232;28;20021;-60
2023/10/17 04:56:37;;;;;;;3.83;1.90;;;6.70;99.90;;;;;;5028008;28;20070;-60
2023/10/17 04:59:03;;;;;;;4.82;2.35;;;6.70;99.90;;;;;;5026007;28;20029;-59
2023/10/17 05:01:35;;;;;;;2.28;2.08;;;6.70;99.90;;;;;;5026442;28;20041;-60
2023/10/17 05:07:27;;;;;;;4.03;2.47;;;6.70;99.90;;;;;;5027071;28;20075;-59
2023/10/17 06:17:42;;;;;;;3.60;2.67;;;6.90;99.90;;;;;;5029094;28;20079;-60
2023/10/17 06:20:16;;;;;;;3.47;2.45;;;7.00;99.90;;;;;;5029087;28;20030;-58
2023/10/17 06:30:49;;;;;;;2.78;2.50;;;7.00;99.90;;;;;;5027103;28;20079;-60
2023/10/17 06:33:19;;;;;;;3.33;2.85;;;7.00;99.90;;;;;;5028892;28;20017;-60
2023/10/17 06:35:46;;;;;;;3.33;2.83;;;7.00;99.90;;;;;;5028178;28;20017;-60
2023/10/17 06:38:16;;;;;;;3.95;3.38;;;7.10;99.90;;;;;;5028417;28;20500;-60
2023/10/17 06:40:45;;;;;;;4.68;3.30;;;7.10;99.90;;;;;;5028100;28;20048;-57
2023/10/17 06:43:27;;;;;;;5.47;3.28;;;7.10;99.90;;;;;;5027636;28;20673;-59
2023/10/17 06:46:12;;;;;;;3.50;3.20;;;7.10;99.90;;;;;;5026649;28;20457;-60
2023/10/17 06:48:47;;;;;;;4.30;2.67;;;7.20;99.90;;;;;;5027692;28;20025;-61
2023/10/17 06:53:47;;;;;;;3.40;2.05;;;7.20;99.90;;;;;;5026239;28;20017;-60
2023/10/17 06:56:13;;;;;;;3.42;2.35;;;7.20;99.90;;;;;;5027557;28;20026;-60
2023/10/17 06:58:39;;;;;;;6.25;3.40;;;7.30;99.90;;;;;;5027283;28;20390;-60
2023/10/17 07:01:05;;;;;;;3.42;3.10;;;7.30;99.90;;;;;;5026681;28;20048;-58
2023/10/17 07:03:34;;;;;;;5.97;3.17;;;7.30;99.90;;;;;;5027326;28;20029;-59
2023/10/17 07:06:12;;;;;;;3.13;2.83;;;7.30;99.90;;;;;;5024092;28;20021;-59
2023/10/17 07:08:40;;;;;;;4.03;2.72;;;7.40;99.90;;;;;;5026900;28;20112;-61
2023/10/17 07:11:09;;;;;;;5.30;3.40;;;7.40;99.90;;;;;;5026552;28;20099;-61
2023/10/17 07:14:10;;;;;;;3.83;3.38;;;7.40;99.90;;;;;;5025281;28;20888;-60
2023/10/17 07:24:25;;;;;;;3.90;2.92;;;7.50;99.90;;;;;;5032271;28;20051;-60
2023/10/17 07:26:54;;;;;;;3.38;3.05;;;7.60;99.90;;;;;;5030722;28;20022;-60
2023/10/17 07:29:22;;;;;;;3.67;3.33;;;7.70;99.90;;;;;;5032300;28;20627;-60
2023/10/17 07:31:54;;;;;;;32.22;18.08;;;7.70;99.90;;;;;;5030554;28;20022;-60
2023/10/17 07:34:21;;;;;;;33.55;19.35;;;7.70;99.90;;;;;;5030780;28;20029;-60
2023/10/17 07:36:55;;;;;;;21.17;13.95;;;7.70;99.90;;;;;;5030660;28;20044;-59
2023/10/17 07:39:36;;;;;;;15.05;9.82;;;7.80;99.90;;;;;;5031325;28;20099;-59
2023/10/17 07:42:02;;;;;;;13.82;9.45;;;7.80;99.90;;;;;;5029603;28;20029;-61
2023/10/17 07:44:29;;;;;;;13.23;10.10;;;7.90;99.90;;;;;;5031340;28;20025;-59
2023/10/17 07:49:35;;;;;;;8.77;7.28;;;7.90;99.90;;;;;;5026815;28;20435;-60
2023/10/17 07:52:07;;;;;;;6.20;4.40;;;8.00;99.90;;;;;;5028486;28;20025;-60
2023/10/17 07:54:38;;;;;;;3.88;3.55;;;8.00;99.90;;;;;;5027798;28;20416;-58
2023/10/17 07:57:05;;;;;;;4.10;2.63;;;8.10;99.90;;;;;;5028081;28;20154;-60
2023/10/17 07:59:31;;;;;;;2.35;2.15;;;8.10;99.90;;;;;;5030414;28;20021;-60
2023/10/17 08:01:59;;;;;;;3.92;2.10;;;8.10;99.90;;;;;;5028730;28;20033;-60
2023/10/17 08:04:30;;;;;;;3.10;2.20;;;8.20;99.90;;;;;;5027869;28;20488;-60
2023/10/17 08:06:56;;;;;;;3.55;1.80;;;8.20;99.90;;;;;;5028948;28;20021;-60
2023/10/17 08:11:52;;;;;;;1.70;1.52;;;8.30;99.90;;;;;;5028704;28;20017;-60
2023/10/17 08:14:40;;;;;;;2.97;1.70;;;8.20;99.90;;;;;;5029699;28;20128;-59
2023/10/17 08:17:08;;;;;;;1.63;1.48;;;8.30;99.90;;;;;;5028362;28;20020;-62
2023/10/17 08:22:18;;;;;;;3.45;1.95;;;8.40;99.90;;;;;;5028133;28;20103;-61
2023/10/17 08:24:51;;;;;;;3.10;1.92;;;8.40;99.90;;;;;;5027980;28;20497;-60
2023/10/17 08:27:41;;;;;;;2.63;1.45;;;8.50;99.90;;;;;;5027526;28;20026;-60
2023/10/17 08:30:14;;;;;;;4.80;1.75;;;8.50;99.90;;;;;;5024666;28;20041;-60
2023/10/17 08:32:47;;;;;;;5.47;1.58;;;8.50;99.90;;;;;;5025952;28;20026;-60
2023/10/17 08:35:26;;;;;;;2.20;1.20;;;8.60;99.90;;;;;;5028249;28;20112;-60
2023/10/17 08:37:52;;;;;;;2.38;1.50;;;8.70;99.90;;;;;;5026572;28;20342;-60
2023/10/17 08:42:59;;;;;;;3.28;1.70;;;8.70;99.90;;;;;;5027289;28;20572;-60
2023/10/17 08:45:26;;;;;;;3.47;2.28;;;8.80;99.90;;;;;;5027749;28;20029;-60
2023/10/17 08:48:00;;;;;;;5.68;2.45;;;8.80;99.90;;;;;;5025523;28;20029;-59
2023/10/17 08:50:30;;;;;;;6.00;2.67;;;8.90;99.90;;;;;;5026557;28;20022;-60
2023/10/17 08:52:59;;;;;;;3.85;2.38;;;9.00;99.90;;;;;;5027192;28;20412;-57
2023/10/17 08:55:27;;;;;;;3.97;1.65;;;9.00;99.90;;;;;;5026538;28;20584;-59
2023/10/17 08:57:52;;;;;;;3.28;1.60;;;9.10;99.90;;;;;;5026288;28;20028;-60
2023/10/17 09:00:35;;;;;;;5.75;2.47;;;9.10;99.90;;;;;;5026776;28;20879;-58
2023/10/17 09:03:09;;;;;;;4.05;1.38;;;9.20;99.90;;;;;;5023994;28;20028;-58
2023/10/17 09:05:57;;;;;;;2.45;1.40;;;9.20;99.90;;;;;;5027111;28;20056;-60
2023/10/17 09:11:14;;;;;;;2.30;1.45;;;9.30;99.90;;;;;;5026556;28;20022;-60
2023/10/17 09:16:15;;;;;;;4.82;1.42;;;9.40;99.90;;;;;;5026232;28;20121;-61
2023/10/17 09:18:49;;;;;;;3.38;1.50;;;9.50;99.90;;;;;;5025810;28;20370;-60
2023/10/17 09:21:16;;;;;;;2.22;1.80;;;9.50;99.90;;;;;;5024278;28;20026;-60
2023/10/17 09:23:41;;;;;;;3.25;1.50;;;9.60;99.90;;;;;;5025181;28;20018;-61
2023/10/17 09:26:11;;;;;;;3.95;2.20;;;9.60;99.90;;;;;;5025115;28;20026;-59
2023/10/17 09:28:39;;;;;;;5.00;1.80;;;9.70;99.90;;;;;;5023663;28;20501;-60
2023/10/17 09:31:09;;;;;;;1.95;1.13;;;9.70;99.90;;;;;;5023058;28;20018;-59
2023/10/17 09:33:37;;;;;;;7.20;1.90;;;9.70;99.90;;;;;;5025208;28;20112;-60
2023/10/17 09:36:04;;;;;;;4.55;1.90;;;9.70;99.90;;;;;;5025048;28;20059;-60
2023/10/17 09:38:34;;;;;;;3.22;1.48;;;9.80;99.90;;;;;;5023607;28;20049;-60
2023/10/17 09:41:01;;;;;;;3.58;2.08;;;9.80;99.90;;;;;;5024327;28;20049;-61
2023/10/17 09:43:26;;;;;;;1.75;1.40;;;9.80;99.90;;;;;;5024817;28;20025;-61
2023/10/17 09:45:55;;;;;;;3.15;1.70;;;9.80;99.90;;;;;;5023269;28;20033;-59
2023/10/17 09:48:30;;;;;;;2.53;1.50;;;9.90;99.90;;;;;;5024089;28;20116;-59
2023/10/17 09:51:01;;;;;;;1.77;1.42;;;10.00;99.90;;;;;;5024928;28;20101;-60
2023/10/17 09:53:30;;;;;;;3.45;1.50;;;10.00;99.90;;;;;;5025257;28;20026;-60
2023/10/17 09:56:00;;;;;;;3.38;1.60;;;10.00;99.90;;;;;;5025338;28;20018;-61
2023/10/17 09:58:31;;;;;;;3.30;1.30;;;10.00;99.90;;;;;;5025347;28;20064;-60
2023/10/17 10:01:01;;;;;;;3.58;1.40;;;10.10;99.90;;;;;;5024828;28;20029;-59
2023/10/17 10:03:28;;;;;;;5.28;1.63;;;10.20;99.90;;;;;;5025232;28;20025;-58
2023/10/17 10:05:54;;;;;;;1.80;1.60;;;10.20;99.90;;;;;;5024846;28;20021;-60
2023/10/17 10:08:27;;;;;;;2.67;1.40;;;10.20;99.90;;;;;;5024506;28;20041;-61
2023/10/17 10:10:53;;;;;;;3.50;1.80;;;10.30;99.90;;;;;;5024179;28;20025;-60
2023/10/17 10:13:21;;;;;;;5.30;2.00;;;10.30;99.90;;;;;;5023292;28;20037;-60
2023/10/17 10:16:07;;;;;;;7.00;1.95;;;10.30;99.90;;;;;;5024234;28;20109;-60
2023/10/17 10:18:35;;;;;;;1.88;1.25;;;10.30;99.90;;;;;;5025746;28;20443;-61
2023/10/17 10:21:07;;;;;;;4.97;1.67;;;10.40;99.90;;;;;;5028128;28;20106;-61
2023/10/17 10:23:39;;;;;;;2.88;1.30;;;10.40;99.90;;;;;;5027956;28;20156;-60
2023/10/17 10:26:19;;;;;;;2.97;1.20;;;10.50;99.90;;;;;;5025364;28;20025;-60
2023/10/17 10:28:52;;;;;;;2.42;1.02;;;10.50;99.90;;;;;;5028840;28;20116;-60
2023/10/17 10:31:21;;;;;;;3.38;1.20;;;10.50;99.90;;;;;;5026652;28;20025;-61
2023/10/17 10:33:49;;;;;;;3.75;1.52;;;10.60;99.90;;;;;;5029970;28;20049;-62
2023/10/17 10:36:18;;;;;;;2.08;1.38;;;10.60;99.90;;;;;;5030592;28;20540;-60
2023/10/17 10:38:44;;;;;;;2.50;1.35;;;10.70;99.90;;;;;;5032887;28;20421;-59
2023/10/17 10:41:13;;;;;;;2.28;1.20;;;10.70;99.90;;;;;;5030636;28;20096;-61
2023/10/17 10:43:46;;;;;;;2.83;1.48;;;10.70;99.90;;;;;;5032218;28;20033;-60
2023/10/17 10:46:14;;;;;;;1.15;0.77;;;10.70;99.90;;;;;;5030807;28;20079;-60
2023/10/17 10:48:56;;;;;;;1.05;0.60;;;10.70;99.90;;;;;;5029031;28;20030;-61
2023/10/17 10:51:24;;;;;;;2.33;0.75;;;10.80;99.90;;;;;;5029965;28;20389;-62
2023/10/17 10:53:58;;;;;;;2.92;1.40;;;10.80;99.90;;;;;;5030838;28;20013;-61
2023/10/17 10:56:27;;;;;;;3.80;1.48;;;10.80;99.90;;;;;;5030332;28;20752;-60
2023/10/17 10:58:57;;;;;;;2.97;1.38;;;10.80;99.90;;;;;;5030874;28;20049;-61
2023/10/17 11:01:25;;;;;;;1.75;1.30;;;10.90;99.90;;;;;;5029682;28;20092;-64
2023/10/17 11:03:51;;;;;;;1.90;0.88;;;10.90;99.90;;;;;;5030582;28;20483;-61
2023/10/17 11:06:25;;;;;;;3.25;1.00;;;10.90;99.90;;;;;;5029786;28;20033;-59
2023/10/17 11:08:51;;;;;;;0.88;0.70;;;10.90;99.90;;;;;;5028231;28;20029;-61
2023/10/17 11:11:19;;;;;;;1.63;0.77;;;10.90;99.90;;;;;;5028389;28;20017;-61
2023/10/17 11:13:50;;;;;;;1.88;1.02;;;10.90;99.90;;;;;;5029753;28;20017;-60
2023/10/17 11:16:26;;;;;;;2.67;0.98;;;10.90;99.90;;;;;;5029021;28;20030;-61
2023/10/17 11:18:51;;;;;;;;;;;11.00;99.90;;;;;;5028958;28;20029;-60
2023/10/17 11:21:22;;;;;;;2.27;0.60;;;11.00;99.90;;;;;;5028748;28;20444;-60
2023/10/17 11:23:54;;;;;;;1.13;0.70;;;11.00;99.90;;;;;;5028509;28;20063;-60
2023/10/17 11:26:23;;;;;;;1.48;0.60;;;11.00;99.90;;;;;;5029359;28;20112;-61
2023/10/17 11:28:52;;;;;;;2.63;0.85;;;11.10;99.90;;;;;;5029083;28;20032;-62
2023/10/17 11:31:24;;;;;;;0.90;0.70;;;11.00;99.90;;;;;;5028893;28;20033;-60
2023/10/17 11:34:07;;;;;;;2.63;0.82;;;11.10;99.90;;;;;;5028734;28;20021;-60
2023/10/17 11:36:46;;;;;;;1.67;0.50;;;11.10;99.90;;;;;;5029672;28;20025;-61
2023/10/17 11:39:15;;;;;;;3.42;0.60;;;11.10;99.90;;;;;;5026211;28;20489;-60
2023/10/17 11:41:53;;;;;;;1.60;0.70;;;11.10;99.90;;;;;;5029114;28;20043;-60
2023/10/17 11:44:23;;;;;;;3.40;0.35;;;11.10;99.90;;;;;;5028555;28;20044;-60
2023/10/17 11:46:55;;;;;;;1.75;0.57;;;11.10;99.90;;;;;;5026765;28;20048;-61
2023/10/17 11:49:26;;;;;;;2.58;0.85;;;11.00;99.90;;;;;;5026565;28;20104;-61
2023/10/17 11:52:12;;;;;;;2.22;0.50;;;11.10;99.90;;;;;;5027570;28;20029;-61
2023/10/17 11:55:11;;;;;;;0.73;0.57;;;11.20;99.90;;;;;;5028297;28;20022;-60
2023/10/17 11:57:37;;;;;;;1.48;0.70;;;11.30;99.90;;;;;;5027606;28;20433;-61
2023/10/17 12:02:47;;;;;;;1.48;0.65;;;11.30;99.90;;;;;;5027779;28;20040;-60
2023/10/17 12:05:19;;;;;;;3.00;0.65;;;11.30;99.90;;;;;;5027950;28;20021;-61
2023/10/17 12:07:49;;;;;;;0.68;0.43;;;11.40;99.90;;;;;;5026316;28;20029;-61
2023/10/17 12:10:15;;;;;;;1.65;0.73;;;11.40;99.90;;;;;;5027558;28;20025;-61
2023/10/17 12:12:41;;;;;;;5.18;0.65;;;11.40;99.90;;;;;;5025548;28;20028;-61
2023/10/17 12:15:06;;;;;;;1.02;0.57;;;11.50;99.90;;;;;;5023141;28;20018;-61
2023/10/17 12:17:32;;;;;;;1.17;0.70;;;11.50;99.90;;;;;;5025729;28;20021;-61
2023/10/17 12:19:57;;;;;;;1.05;0.60;;;11.50;99.90;;;;;;5024582;28;20013;-61
2023/10/17 12:22:24;;;;;;;1.63;0.85;;;11.60;99.90;;;;;;5025714;28;20034;-61
2023/10/17 12:24:49;;;;;;;0.95;0.77;;;11.60;99.90;;;;;;5024980;28;20029;-61
2023/10/17 12:27:15;;;;;;;1.38;0.70;;;11.60;99.90;;;;;;5026486;28;20021;-61
2023/10/17 12:29:41;;;;;;;2.35;0.47;;;11.60;99.90;;;;;;5026048;28;20030;-61
2023/10/17 12:32:10;;;;;;;0.45;0.28;;;11.70;99.90;;;;;;5025845;28;20490;-61
2023/10/17 12:34:42;;;;;;;1.60;0.55;;;11.70;99.90;;;;;;5026258;28;20037;-61
2023/10/17 12:37:12;;;;;;;1.83;0.77;;;11.70;99.90;;;;;;5026104;28;20033;-61
2023/10/17 12:39:40;;;;;;;1.90;0.73;;;11.80;99.90;;;;;;5025899;28;20033;-61
2023/10/17 12:42:05;;;;;;;0.30;0.30;;;11.80;99.90;;;;;;5024599;28;20060;-61
2023/10/17 12:44:31;;;;;;;1.92;0.88;;;11.80;99.90;;;;;;5025647;28;20512;-61
2023/10/17 12:46:57;;;;;;;2.70;1.00;;;11.70;99.90;;;;;;5025506;28;20025;-61
2023/10/17 12:49:22;;;;;;;1.13;0.60;;;11.70;99.90;;;;;;5025056;28;20299;-61
2023/10/17 12:51:48;;;;;;;1.23;0.57;;;11.70;99.90;;;;;;5034630;28;20075;-61
2023/10/17 12:54:13;;;;;;;2.42;0.73;;;11.80;99.90;;;;;;5029631;28;20100;-61
2023/10/17 12:56:40;;;;;;;1.27;0.50;;;11.80;99.90;;;;;;5033585;28;20037;-61
2023/10/17 12:59:12;;;;;;;1.08;0.63;;;11.80;99.90;;;;;;5033222;28;20043;-61
2023/10/17 13:01:38;;;;;;;0.50;0.40;;;11.70;99.90;;;;;;5043435;22;20049;-53
2023/10/17 13:04:04;;;;;;;1.88;0.70;;;11.70;99.90;;;;;;5016463;28;20570;-50
2023/10/17 13:06:29;;;;;;;0.60;0.50;;;11.70;99.90;;;;;;5021550;28;20025;-54
2023/10/17 13:08:58;;;;;;;2.45;0.40;;;11.60;99.90;;;;;;5018862;28;20025;-49
2023/10/17 13:11:27;;;;;;;0.60;0.40;;;11.60;99.90;;;;;;5024355;28;20294;-52
2023/10/17 13:13:53;;;;;;;0.45;0.45;;;11.50;99.90;;;;;;5019364;28;20033;-50
2023/10/17 13:16:21;;;;;;;2.95;0.60;;;11.40;99.90;;;;;;5020582;28;20504;-54
2023/10/17 13:18:47;;;;;;;1.75;0.63;;;11.40;99.90;;;;;;5025132;28;20521;-50
2023/10/17 13:21:14;;;;;;;6.80;0.68;;;11.30;99.90;;;;;;5021739;28;20072;-48
2023/10/17 13:23:40;;;;;;;2.85;0.70;;;11.40;99.90;;;;;;5021670;28;20033;-48
2023/10/17 13:26:13;;;;;;;1.05;0.55;;;11.40;99.90;;;;;;5007256;28;20591;-52
2023/10/17 13:28:39;;;;;;;3.63;0.50;;;11.40;99.90;;;;;;5021568;28;20065;-52
2023/10/17 13:31:12;;;;;;;0.73;0.55;;;11.40;99.90;;;;;;5021363;28;20032;-52
2023/10/17 13:33:38;;;;;;;4.93;0.77;;;11.50;99.90;;;;;;5024453;28;20018;-48
2023/10/17 13:36:07;;;;;;;0.85;0.45;;;11.50;99.90;;;;;;5022352;28;20390;-51
2023/10/17 13:38:32;;;;;;;1.33;0.52;;;11.40;99.90;;;;;;5006087;28;20032;-49
2023/10/17 13:41:05;;;;;;;1.08;0.52;;;11.40;99.90;;;;;;5018967;28;20034;-54
2023/10/17 13:43:32;;;;;;;1.00;0.68;;;11.40;99.90;;;;;;5021484;28;20454;-49
2023/10/17 13:46:00;;;;;;;0.85;0.40;;;11.40;99.90;;;;;;5022071;28;20033;-50
2023/10/17 13:48:27;;;;;;;2.15;0.28;;;11.40;99.90;;;;;;5019331;28;20093;-48
2023/10/17 13:50:52;;;;;;;1.38;0.40;;;11.40;99.90;;;;;;5021689;28;20389;-48
2023/10/17 13:53:18;;;;;;;1.13;0.50;;;11.30;99.90;;;;;;5024486;28;20026;-51
2023/10/17 13:55:45;;;;;;;1.70;0.30;;;11.30;99.90;;;;;;5025420;28;20017;-48
2023/10/17 13:58:11;;;;;;;2.20;0.75;;;11.30;99.90;;;;;;5022507;28;20033;-52
2023/10/17 14:00:43;;;;;;;2.17;0.40;;;11.30;99.90;;;;;;5025112;28;20026;-52
2023/10/17 14:03:13;;;;;;;0.80;0.30;;;11.20;99.90;;;;;;5023754;28;20100;-51
2023/10/17 14:05:41;;;;;;;1.40;0.28;;;11.20;99.90;;;;;;5027936;28;20569;-53
2023/10/17 14:08:08;;;;;;;0.55;0.32;;;11.20;99.90;;;;;;5025825;28;20086;-48
2023/10/17 14:10:37;;;;;;;2.15;0.47;;;11.10;99.90;;;;;;5023242;28;20079;-53
2023/10/17 14:13:08;;;;;;;0.88;0.50;;;11.10;99.90;;;;;;5023607;28;20017;-51
2023/10/17 14:15:36;;;;;;;0.63;0.38;;;11.10;99.90;;;;;;5025948;28;20029;-52
2023/10/17 14:18:09;;;;;;;1.30;0.43;;;11.10;99.90;;;;;;5023323;28;20033;-49
2023/10/17 14:20:53;;;;;;;3.35;0.70;;;11.00;99.90;;;;;;5025579;28;20030;-56
2023/10/17 14:23:26;;;;;;;3.30;0.40;;;11.00;99.90;;;;;;5028121;28;20405;-54
2023/10/17 14:26:00;;;;;;;0.30;0.30;;;11.00;99.90;;;;;;5027889;28;20148;-51
2023/10/17 14:28:26;;;;;;;0.40;0.20;;;10.90;99.90;;;;;;5026040;28;20021;-52
2023/10/17 14:30:52;;;;;;;0.85;0.57;;;11.00;99.90;;;;;;5026012;28;20109;-56
2023/10/17 14:33:18;;;;;;;0.30;0.20;;;10.90;99.90;;;;;;5026185;28;20101;-55
2023/10/17 14:35:44;;;;;;;0.30;0.22;;;10.90;99.90;;;;;;5023410;28;20531;-54
2023/10/17 14:38:10;;;;;;;0.75;0.52;;;10.90;99.90;;;;;;5027133;28;20786;-53
2023/10/17 14:40:37;;;;;;;1.30;0.30;;;10.90;99.90;;;;;;5025402;28;20018;-55
2023/10/17 14:43:08;;;;;;;1.75;0.30;;;10.90;99.90;;;;;;5025184;28;20030;-53
2023/10/17 14:45:38;;;;;;;0.10;0.10;;;10.80;99.90;;;;;;5027165;28;20466;-54
2023/10/17 14:48:05;;;;;;;1.00;0.28;;;10.80;99.90;;;;;;5023144;28;20030;-52
2023/10/17 14:50:33;;;;;;;0.52;0.30;;;10.80;99.90;;;;;;5024687;28;20096;-54
2023/10/17 14:52:59;;;;;;;0.10;0.10;;;10.70;99.90;;;;;;5023234;28;20028;-52
2023/10/17 14:55:26;;;;;;;0.43;0.20;;;10.70;99.90;;;;;;5026703;28;20018;-55
2023/10/17 14:57:53;;;;;;;0.28;0.25;;;10.70;99.90;;;;;;5024047;28;20421;-53
2023/10/17 15:00:18;;;;;;;0.30;0.20;;;10.70;99.90;;;;;;5025925;28;20029;-50
2023/10/17 15:02:44;;;;;;;0.47;0.40;;;10.60;99.90;;;;;;5023304;28;20096;-52
2023/10/17 15:05:13;;;;;;;0.20;0.10;;;10.50;99.90;;;;;;5026388;28;20035;-54
2023/10/17 15:07:39;;;;;;;0.43;0.20;;;10.50;99.90;;;;;;5026595;28;20100;-52
2023/10/17 15:10:11;;;;;;;2.15;0.30;;;10.40;99.90;;;;;;5026802;28;20029;-49
2023/10/17 15:12:47;;;;;;;0.40;0.40;;;10.40;99.90;;;;;;5026510;28;20025;-52